sensor_id;sensor_type;location;lat;lon;timestamp;P1;durP1;ratioP1;P2;durP2;ratioP2
31210;SDS011;17836;50.948;3.946;2023-09-19T00:03:24;6.55;;;2.45;;
31210;SDS011;17836;50.948;3.946;2023-09-19T00:05:53;9.55;;;2.00;;
31210;SDS011;17836;50.948;3.946;2023-09-19T00:08:21;13.68;;;2.65;;
31210;SDS011;17836;50.948;3.946;2023-09-19T00:10:49;8.60;;;1.98;;
31210;SDS011;17836;50.948;3.946;2023-09-19T00:13:15;9.60;;;2.00;;
31210;SDS011;17836;50.948;3.946;2023-09-19T00:15:41;10.65;;;2.58;;
31210;SDS011;17836;50.948;3.946;2023-09-19T00:18:07;7.95;;;1.90;;
31210;SDS011;17836;50.948;3.946;2023-09-19T00:20:35;10.15;;;2.20;;
31210;SDS011;17836;50.948;3.946;2023-09-19T00:23:03;10.15;;;1.95;;
31210;SDS011;17836;50.948;3.946;2023-09-19T00:25:29;7.30;;;2.00;;
31210;SDS011;17836;50.948;3.946;2023-09-19T00:27:54;7.03;;;2.30;;
31210;SDS011;17836;50.948;3.946;2023-09-19T00:30:20;8.90;;;2.38;;
31210;SDS011;17836;50.948;3.946;2023-09-19T00:32:46;10.27;;;2.17;;
31210;SDS011;17836;50.948;3.946;2023-09-19T00:35:17;10.60;;;2.13;;
31210;SDS011;17836;50.948;3.946;2023-09-19T00:37:42;6.80;;;2.30;;
31210;SDS011;17836;50.948;3.946;2023-09-19T00:40:08;12.05;;;3.25;;
31210;SDS011;17836;50.948;3.946;2023-09-19T00:42:40;11.73;;;2.67;;
31210;SDS011;17836;50.948;3.946;2023-09-19T00:45:09;10.82;;;2.35;;
31210;SDS011;17836;50.948;3.946;2023-09-19T00:47:41;7.68;;;2.28;;
31210;SDS011;17836;50.948;3.946;2023-09-19T00:50:07;9.35;;;2.13;;
31210;SDS011;17836;50.948;3.946;2023-09-19T00:52:34;8.00;;;2.55;;
31210;SDS011;17836;50.948;3.946;2023-09-19T00:55:01;7.90;;;2.35;;
31210;SDS011;17836;50.948;3.946;2023-09-19T00:57:27;6.47;;;2.20;;
31210;SDS011;17836;50.948;3.946;2023-09-19T00:59:53;9.30;;;2.38;;
31210;SDS011;17836;50.948;3.946;2023-09-19T01:02:20;8.20;;;2.85;;
31210;SDS011;17836;50.948;3.946;2023-09-19T01:04:46;8.90;;;2.67;;
31210;SDS011;17836;50.948;3.946;2023-09-19T01:07:11;8.43;;;2.23;;
31210;SDS011;17836;50.948;3.946;2023-09-19T01:09:36;8.73;;;2.13;;
31210;SDS011;17836;50.948;3.946;2023-09-19T01:12:02;7.63;;;1.88;;
31210;SDS011;17836;50.948;3.946;2023-09-19T01:17:14;8.23;;;2.28;;
31210;SDS011;17836;50.948;3.946;2023-09-19T01:29:41;8.45;;;2.85;;
31210;SDS011;17836;50.948;3.946;2023-09-19T01:32:09;12.65;;;2.78;;
31210;SDS011;17836;50.948;3.946;2023-09-19T01:34:47;11.35;;;2.72;;
31210;SDS011;17836;50.948;3.946;2023-09-19T01:37:17;5.68;;;2.13;;
31210;SDS011;17836;50.948;3.946;2023-09-19T01:39:47;6.10;;;1.95;;
31210;SDS011;17836;50.948;3.946;2023-09-19T01:44:59;7.72;;;2.42;;
31210;SDS011;17836;50.948;3.946;2023-09-19T01:47:32;9.27;;;2.47;;
31210;SDS011;17836;50.948;3.946;2023-09-19T01:52:36;13.02;;;2.22;;
31210;SDS011;17836;50.948;3.946;2023-09-19T01:55:07;10.27;;;2.05;;
31210;SDS011;17836;50.948;3.946;2023-09-19T01:57:54;8.73;;;2.67;;
31210;SDS011;17836;50.948;3.946;2023-09-19T02:00:22;5.82;;;2.20;;
31210;SDS011;17836;50.948;3.946;2023-09-19T02:02:48;7.93;;;2.35;;
31210;SDS011;17836;50.948;3.946;2023-09-19T02:05:21;9.75;;;2.80;;
31210;SDS011;17836;50.948;3.946;2023-09-19T02:07:48;20.77;;;3.17;;
31210;SDS011;17836;50.948;3.946;2023-09-19T02:10:13;10.85;;;2.65;;
31210;SDS011;17836;50.948;3.946;2023-09-19T02:12:39;14.20;;;2.50;;
31210;SDS011;17836;50.948;3.946;2023-09-19T02:15:04;10.30;;;2.60;;
31210;SDS011;17836;50.948;3.946;2023-09-19T02:17:32;13.52;;;3.10;;
31210;SDS011;17836;50.948;3.946;2023-09-19T02:19:57;10.68;;;3.03;;
31210;SDS011;17836;50.948;3.946;2023-09-19T02:22:23;11.38;;;2.80;;
31210;SDS011;17836;50.948;3.946;2023-09-19T02:24:49;12.48;;;2.40;;
31210;SDS011;17836;50.948;3.946;2023-09-19T02:27:16;11.13;;;3.03;;
31210;SDS011;17836;50.948;3.946;2023-09-19T02:29:44;15.02;;;2.88;;
31210;SDS011;17836;50.948;3.946;2023-09-19T02:32:09;6.72;;;2.15;;
31210;SDS011;17836;50.948;3.946;2023-09-19T02:34:37;9.80;;;3.05;;
31210;SDS011;17836;50.948;3.946;2023-09-19T02:37:04;12.23;;;2.63;;
31210;SDS011;17836;50.948;3.946;2023-09-19T02:39:33;10.90;;;2.35;;
31210;SDS011;17836;50.948;3.946;2023-09-19T02:41:59;10.35;;;2.28;;
31210;SDS011;17836;50.948;3.946;2023-09-19T02:44:24;11.35;;;2.90;;
31210;SDS011;17836;50.948;3.946;2023-09-19T02:46:50;13.40;;;3.60;;
31210;SDS011;17836;50.948;3.946;2023-09-19T02:49:15;13.10;;;2.75;;
31210;SDS011;17836;50.948;3.946;2023-09-19T02:51:42;6.07;;;1.98;;
31210;SDS011;17836;50.948;3.946;2023-09-19T02:54:08;7.80;;;2.42;;
31210;SDS011;17836;50.948;3.946;2023-09-19T02:56:33;11.65;;;2.53;;
31210;SDS011;17836;50.948;3.946;2023-09-19T02:59:01;8.02;;;2.28;;
31210;SDS011;17836;50.948;3.946;2023-09-19T03:01:27;7.05;;;1.85;;
31210;SDS011;17836;50.948;3.946;2023-09-19T03:03:53;8.43;;;2.00;;
31210;SDS011;17836;50.948;3.946;2023-09-19T03:06:19;4.50;;;1.58;;
31210;SDS011;17836;50.948;3.946;2023-09-19T03:08:45;7.45;;;1.88;;
31210;SDS011;17836;50.948;3.946;2023-09-19T03:11:12;6.93;;;1.80;;
31210;SDS011;17836;50.948;3.946;2023-09-19T03:13:39;6.45;;;2.45;;
31210;SDS011;17836;50.948;3.946;2023-09-19T03:16:05;9.07;;;2.33;;
31210;SDS011;17836;50.948;3.946;2023-09-19T03:18:31;7.65;;;2.22;;
31210;SDS011;17836;50.948;3.946;2023-09-19T03:20:57;7.72;;;2.15;;
31210;SDS011;17836;50.948;3.946;2023-09-19T03:23:25;6.32;;;1.95;;
31210;SDS011;17836;50.948;3.946;2023-09-19T03:25:53;9.20;;;2.28;;
31210;SDS011;17836;50.948;3.946;2023-09-19T03:28:18;8.57;;;2.05;;
31210;SDS011;17836;50.948;3.946;2023-09-19T03:30:45;6.97;;;2.13;;
31210;SDS011;17836;50.948;3.946;2023-09-19T03:33:11;8.10;;;2.45;;
31210;SDS011;17836;50.948;3.946;2023-09-19T03:35:39;10.93;;;2.63;;
31210;SDS011;17836;50.948;3.946;2023-09-19T03:38:05;10.75;;;2.30;;
31210;SDS011;17836;50.948;3.946;2023-09-19T03:40:30;11.52;;;2.35;;
31210;SDS011;17836;50.948;3.946;2023-09-19T03:42:55;15.85;;;2.83;;
31210;SDS011;17836;50.948;3.946;2023-09-19T03:45:21;10.32;;;2.30;;
31210;SDS011;17836;50.948;3.946;2023-09-19T03:47:46;15.80;;;2.90;;
31210;SDS011;17836;50.948;3.946;2023-09-19T03:50:15;10.07;;;2.80;;
31210;SDS011;17836;50.948;3.946;2023-09-19T03:52:42;8.98;;;2.35;;
31210;SDS011;17836;50.948;3.946;2023-09-19T03:55:08;16.35;;;3.28;;
31210;SDS011;17836;50.948;3.946;2023-09-19T03:57:34;12.88;;;2.97;;
31210;SDS011;17836;50.948;3.946;2023-09-19T04:00:02;14.18;;;3.40;;
31210;SDS011;17836;50.948;3.946;2023-09-19T04:02:32;12.18;;;2.80;;
31210;SDS011;17836;50.948;3.946;2023-09-19T04:04:58;8.77;;;2.00;;
31210;SDS011;17836;50.948;3.946;2023-09-19T04:07:23;12.40;;;2.88;;
31210;SDS011;17836;50.948;3.946;2023-09-19T04:09:51;12.27;;;2.95;;
31210;SDS011;17836;50.948;3.946;2023-09-19T04:12:18;13.98;;;2.88;;
31210;SDS011;17836;50.948;3.946;2023-09-19T04:14:46;11.70;;;2.55;;
31210;SDS011;17836;50.948;3.946;2023-09-19T04:17:11;12.27;;;2.65;;
31210;SDS011;17836;50.948;3.946;2023-09-19T04:19:37;9.10;;;2.23;;
31210;SDS011;17836;50.948;3.946;2023-09-19T04:22:02;18.73;;;3.53;;
31210;SDS011;17836;50.948;3.946;2023-09-19T04:24:31;8.68;;;2.63;;
31210;SDS011;17836;50.948;3.946;2023-09-19T04:26:57;10.82;;;2.90;;
31210;SDS011;17836;50.948;3.946;2023-09-19T04:29:24;14.95;;;3.33;;
31210;SDS011;17836;50.948;3.946;2023-09-19T04:31:51;13.02;;;3.03;;
31210;SDS011;17836;50.948;3.946;2023-09-19T04:34:17;10.35;;;3.10;;
31210;SDS011;17836;50.948;3.946;2023-09-19T04:36:43;11.00;;;2.95;;
31210;SDS011;17836;50.948;3.946;2023-09-19T04:39:08;9.38;;;2.03;;
31210;SDS011;17836;50.948;3.946;2023-09-19T04:41:35;13.07;;;2.85;;
31210;SDS011;17836;50.948;3.946;2023-09-19T04:44:01;11.65;;;2.40;;
31210;SDS011;17836;50.948;3.946;2023-09-19T04:46:28;10.68;;;2.67;;
31210;SDS011;17836;50.948;3.946;2023-09-19T04:48:53;7.70;;;2.97;;
31210;SDS011;17836;50.948;3.946;2023-09-19T04:51:19;9.80;;;2.40;;
31210;SDS011;17836;50.948;3.946;2023-09-19T04:53:45;16.02;;;3.10;;
31210;SDS011;17836;50.948;3.946;2023-09-19T04:56:10;6.03;;;1.97;;
31210;SDS011;17836;50.948;3.946;2023-09-19T04:58:36;12.80;;;2.53;;
31210;SDS011;17836;50.948;3.946;2023-09-19T05:01:01;11.47;;;2.63;;
31210;SDS011;17836;50.948;3.946;2023-09-19T05:03:27;12.30;;;3.15;;
31210;SDS011;17836;50.948;3.946;2023-09-19T05:05:55;15.63;;;3.42;;
31210;SDS011;17836;50.948;3.946;2023-09-19T05:08:20;12.40;;;2.90;;
31210;SDS011;17836;50.948;3.946;2023-09-19T05:10:47;12.10;;;3.00;;
31210;SDS011;17836;50.948;3.946;2023-09-19T05:13:12;13.68;;;3.28;;
31210;SDS011;17836;50.948;3.946;2023-09-19T05:15:37;12.43;;;2.70;;
31210;SDS011;17836;50.948;3.946;2023-09-19T05:18:04;12.60;;;2.53;;
31210;SDS011;17836;50.948;3.946;2023-09-19T05:20:30;15.35;;;3.08;;
31210;SDS011;17836;50.948;3.946;2023-09-19T05:22:59;9.98;;;2.15;;
31210;SDS011;17836;50.948;3.946;2023-09-19T05:25:31;11.48;;;3.15;;
31210;SDS011;17836;50.948;3.946;2023-09-19T05:27:57;17.88;;;2.70;;
31210;SDS011;17836;50.948;3.946;2023-09-19T05:30:23;16.05;;;3.72;;
31210;SDS011;17836;50.948;3.946;2023-09-19T05:32:48;6.82;;;2.95;;
31210;SDS011;17836;50.948;3.946;2023-09-19T05:35:16;19.77;;;3.28;;
31210;SDS011;17836;50.948;3.946;2023-09-19T05:37:42;13.02;;;2.55;;
31210;SDS011;17836;50.948;3.946;2023-09-19T05:40:07;10.37;;;3.10;;
31210;SDS011;17836;50.948;3.946;2023-09-19T05:42:37;8.35;;;2.45;;
31210;SDS011;17836;50.948;3.946;2023-09-19T05:45:04;12.70;;;2.95;;
31210;SDS011;17836;50.948;3.946;2023-09-19T05:47:31;12.98;;;2.95;;
31210;SDS011;17836;50.948;3.946;2023-09-19T05:49:56;12.77;;;2.78;;
31210;SDS011;17836;50.948;3.946;2023-09-19T05:52:21;13.37;;;3.07;;
31210;SDS011;17836;50.948;3.946;2023-09-19T05:54:47;15.35;;;2.85;;
31210;SDS011;17836;50.948;3.946;2023-09-19T05:57:12;14.98;;;2.50;;
31210;SDS011;17836;50.948;3.946;2023-09-19T05:59:38;10.50;;;2.27;;
31210;SDS011;17836;50.948;3.946;2023-09-19T06:02:05;16.05;;;2.75;;
31210;SDS011;17836;50.948;3.946;2023-09-19T06:04:31;8.20;;;2.40;;
31210;SDS011;17836;50.948;3.946;2023-09-19T06:06:56;10.90;;;2.80;;
31210;SDS011;17836;50.948;3.946;2023-09-19T06:09:21;7.13;;;2.07;;
31210;SDS011;17836;50.948;3.946;2023-09-19T06:11:48;11.10;;;2.97;;
31210;SDS011;17836;50.948;3.946;2023-09-19T06:14:13;14.52;;;3.08;;
31210;SDS011;17836;50.948;3.946;2023-09-19T06:16:39;10.20;;;2.35;;
31210;SDS011;17836;50.948;3.946;2023-09-19T06:19:06;9.32;;;2.13;;
31210;SDS011;17836;50.948;3.946;2023-09-19T06:21:35;12.85;;;2.67;;
31210;SDS011;17836;50.948;3.946;2023-09-19T06:24:00;17.38;;;3.22;;
31210;SDS011;17836;50.948;3.946;2023-09-19T06:26:28;10.38;;;2.45;;
31210;SDS011;17836;50.948;3.946;2023-09-19T06:28:54;7.57;;;2.60;;
31210;SDS011;17836;50.948;3.946;2023-09-19T06:31:20;14.35;;;3.03;;
31210;SDS011;17836;50.948;3.946;2023-09-19T06:33:47;13.63;;;2.85;;
31210;SDS011;17836;50.948;3.946;2023-09-19T06:36:15;11.57;;;2.55;;
31210;SDS011;17836;50.948;3.946;2023-09-19T06:38:40;11.10;;;2.47;;
31210;SDS011;17836;50.948;3.946;2023-09-19T06:41:06;10.25;;;2.55;;
31210;SDS011;17836;50.948;3.946;2023-09-19T06:43:33;8.43;;;2.08;;
31210;SDS011;17836;50.948;3.946;2023-09-19T06:45:59;9.32;;;2.47;;
31210;SDS011;17836;50.948;3.946;2023-09-19T06:48:25;8.05;;;2.55;;
31210;SDS011;17836;50.948;3.946;2023-09-19T06:50:50;10.77;;;2.87;;
31210;SDS011;17836;50.948;3.946;2023-09-19T06:53:15;9.43;;;2.10;;
31210;SDS011;17836;50.948;3.946;2023-09-19T06:55:44;7.25;;;2.08;;
31210;SDS011;17836;50.948;3.946;2023-09-19T06:58:10;10.30;;;2.20;;
31210;SDS011;17836;50.948;3.946;2023-09-19T07:00:35;7.80;;;2.58;;
31210;SDS011;17836;50.948;3.946;2023-09-19T07:03:07;10.65;;;2.53;;
31210;SDS011;17836;50.948;3.946;2023-09-19T07:05:39;9.65;;;2.40;;
31210;SDS011;17836;50.948;3.946;2023-09-19T07:08:08;7.40;;;2.30;;
31210;SDS011;17836;50.948;3.946;2023-09-19T07:10:35;7.30;;;2.45;;
31210;SDS011;17836;50.948;3.946;2023-09-19T07:13:02;6.07;;;2.05;;
31210;SDS011;17836;50.948;3.946;2023-09-19T07:15:27;8.18;;;1.75;;
31210;SDS011;17836;50.948;3.946;2023-09-19T07:17:53;12.63;;;2.17;;
31210;SDS011;17836;50.948;3.946;2023-09-19T07:20:19;9.52;;;2.20;;
31210;SDS011;17836;50.948;3.946;2023-09-19T07:22:44;13.50;;;2.47;;
31210;SDS011;17836;50.948;3.946;2023-09-19T07:25:10;12.10;;;3.03;;
31210;SDS011;17836;50.948;3.946;2023-09-19T07:27:35;7.67;;;1.80;;
31210;SDS011;17836;50.948;3.946;2023-09-19T07:30:00;11.57;;;3.07;;
31210;SDS011;17836;50.948;3.946;2023-09-19T07:32:26;12.10;;;2.73;;
31210;SDS011;17836;50.948;3.946;2023-09-19T07:34:51;7.70;;;2.27;;
31210;SDS011;17836;50.948;3.946;2023-09-19T07:37:16;7.40;;;2.10;;
31210;SDS011;17836;50.948;3.946;2023-09-19T07:39:42;8.13;;;2.30;;
31210;SDS011;17836;50.948;3.946;2023-09-19T07:42:09;11.35;;;2.65;;
31210;SDS011;17836;50.948;3.946;2023-09-19T07:44:36;9.85;;;2.25;;
31210;SDS011;17836;50.948;3.946;2023-09-19T07:47:01;12.40;;;1.92;;
31210;SDS011;17836;50.948;3.946;2023-09-19T07:49:28;9.05;;;2.85;;
31210;SDS011;17836;50.948;3.946;2023-09-19T07:51:53;11.55;;;3.72;;
31210;SDS011;17836;50.948;3.946;2023-09-19T07:54:19;10.15;;;2.58;;
31210;SDS011;17836;50.948;3.946;2023-09-19T07:56:46;9.73;;;2.33;;
31210;SDS011;17836;50.948;3.946;2023-09-19T07:59:11;11.20;;;3.30;;
31210;SDS011;17836;50.948;3.946;2023-09-19T08:01:38;12.70;;;2.80;;
31210;SDS011;17836;50.948;3.946;2023-09-19T08:04:06;6.13;;;2.08;;
31210;SDS011;17836;50.948;3.946;2023-09-19T08:06:31;13.18;;;2.65;;
31210;SDS011;17836;50.948;3.946;2023-09-19T08:08:56;11.33;;;2.83;;
31210;SDS011;17836;50.948;3.946;2023-09-19T08:11:22;6.68;;;1.75;;
31210;SDS011;17836;50.948;3.946;2023-09-19T08:13:49;8.88;;;2.38;;
31210;SDS011;17836;50.948;3.946;2023-09-19T08:16:15;12.27;;;2.28;;
31210;SDS011;17836;50.948;3.946;2023-09-19T08:18:40;11.38;;;2.30;;
31210;SDS011;17836;50.948;3.946;2023-09-19T08:21:05;10.60;;;2.97;;
31210;SDS011;17836;50.948;3.946;2023-09-19T08:23:35;8.38;;;2.95;;
31210;SDS011;17836;50.948;3.946;2023-09-19T08:26:00;10.63;;;2.63;;
31210;SDS011;17836;50.948;3.946;2023-09-19T08:31:05;6.30;;;1.90;;
31210;SDS011;17836;50.948;3.946;2023-09-19T08:33:31;7.13;;;1.95;;
31210;SDS011;17836;50.948;3.946;2023-09-19T08:35:59;7.32;;;1.90;;
31210;SDS011;17836;50.948;3.946;2023-09-19T08:38:24;10.93;;;2.55;;
31210;SDS011;17836;50.948;3.946;2023-09-19T08:40:56;7.32;;;1.65;;
31210;SDS011;17836;50.948;3.946;2023-09-19T08:43:21;10.05;;;2.00;;
31210;SDS011;17836;50.948;3.946;2023-09-19T08:45:47;8.77;;;2.07;;
31210;SDS011;17836;50.948;3.946;2023-09-19T08:51:25;8.15;;;1.92;;
31210;SDS011;17836;50.948;3.946;2023-09-19T08:56:11;9.68;;;2.25;;
31210;SDS011;17836;50.948;3.946;2023-09-19T09:01:14;6.40;;;1.60;;
31210;SDS011;17836;50.948;3.946;2023-09-19T09:03:40;7.22;;;1.83;;
31210;SDS011;17836;50.948;3.946;2023-09-19T09:06:07;7.40;;;1.73;;
31210;SDS011;17836;50.948;3.946;2023-09-19T09:08:32;7.70;;;1.85;;
31210;SDS011;17836;50.948;3.946;2023-09-19T09:10:58;6.00;;;1.60;;
31210;SDS011;17836;50.948;3.946;2023-09-19T09:13:24;5.15;;;1.73;;
31210;SDS011;17836;50.948;3.946;2023-09-19T09:15:51;6.85;;;1.65;;
31210;SDS011;17836;50.948;3.946;2023-09-19T09:18:16;6.82;;;1.67;;
31210;SDS011;17836;50.948;3.946;2023-09-19T09:20:43;10.02;;;2.20;;
31210;SDS011;17836;50.948;3.946;2023-09-19T09:23:09;8.00;;;1.42;;
31210;SDS011;17836;50.948;3.946;2023-09-19T09:25:51;6.50;;;1.40;;
31210;SDS011;17836;50.948;3.946;2023-09-19T09:28:20;7.55;;;1.85;;
31210;SDS011;17836;50.948;3.946;2023-09-19T09:30:46;11.02;;;2.67;;
31210;SDS011;17836;50.948;3.946;2023-09-19T09:33:12;7.45;;;1.70;;
31210;SDS011;17836;50.948;3.946;2023-09-19T09:35:59;5.05;;;1.92;;
31210;SDS011;17836;50.948;3.946;2023-09-19T09:38:29;6.28;;;1.70;;
31210;SDS011;17836;50.948;3.946;2023-09-19T09:40:57;5.55;;;1.63;;
31210;SDS011;17836;50.948;3.946;2023-09-19T09:43:29;7.90;;;1.25;;
31210;SDS011;17836;50.948;3.946;2023-09-19T09:48:59;8.25;;;1.33;;
31210;SDS011;17836;50.948;3.946;2023-09-19T09:51:41;4.80;;;1.70;;
31210;SDS011;17836;50.948;3.946;2023-09-19T09:54:34;10.30;;;2.28;;
31210;SDS011;17836;50.948;3.946;2023-09-19T10:02:16;8.52;;;1.50;;
31210;SDS011;17836;50.948;3.946;2023-09-19T10:04:54;3.28;;;1.00;;
31210;SDS011;17836;50.948;3.946;2023-09-19T10:07:34;4.57;;;1.23;;
31210;SDS011;17836;50.948;3.946;2023-09-19T10:10:30;5.55;;;1.58;;
31210;SDS011;17836;50.948;3.946;2023-09-19T10:13:03;4.60;;;0.97;;
31210;SDS011;17836;50.948;3.946;2023-09-19T10:15:32;4.75;;;1.05;;
31210;SDS011;17836;50.948;3.946;2023-09-19T10:17:57;5.88;;;1.77;;
31210;SDS011;17836;50.948;3.946;2023-09-19T10:20:26;4.55;;;1.20;;
31210;SDS011;17836;50.948;3.946;2023-09-19T10:22:55;6.90;;;1.35;;
31210;SDS011;17836;50.948;3.946;2023-09-19T10:25:27;5.53;;;1.40;;
31210;SDS011;17836;50.948;3.946;2023-09-19T10:28:02;7.63;;;1.05;;
31210;SDS011;17836;50.948;3.946;2023-09-19T10:30:33;5.60;;;1.33;;
31210;SDS011;17836;50.948;3.946;2023-09-19T10:33:02;4.53;;;0.95;;
31210;SDS011;17836;50.948;3.946;2023-09-19T10:35:31;4.55;;;0.82;;
31210;SDS011;17836;50.948;3.946;2023-09-19T10:37:58;5.82;;;1.58;;
31210;SDS011;17836;50.948;3.946;2023-09-19T10:40:24;5.90;;;1.20;;
31210;SDS011;17836;50.948;3.946;2023-09-19T10:42:57;2.42;;;0.80;;
31210;SDS011;17836;50.948;3.946;2023-09-19T10:45:25;3.25;;;0.95;;
31210;SDS011;17836;50.948;3.946;2023-09-19T10:47:51;5.03;;;1.10;;
31210;SDS011;17836;50.948;3.946;2023-09-19T10:50:20;7.13;;;1.23;;
31210;SDS011;17836;50.948;3.946;2023-09-19T10:52:47;5.10;;;1.03;;
31210;SDS011;17836;50.948;3.946;2023-09-19T10:55:18;2.83;;;0.93;;
31210;SDS011;17836;50.948;3.946;2023-09-19T10:57:44;3.20;;;0.85;;
31210;SDS011;17836;50.948;3.946;2023-09-19T11:00:11;4.90;;;1.05;;
31210;SDS011;17836;50.948;3.946;2023-09-19T11:05:40;3.05;;;0.60;;
31210;SDS011;17836;50.948;3.946;2023-09-19T11:08:09;3.97;;;0.90;;
31210;SDS011;17836;50.948;3.946;2023-09-19T11:10:51;1.90;;;0.67;;
31210;SDS011;17836;50.948;3.946;2023-09-19T11:13:29;2.60;;;0.75;;
31210;SDS011;17836;50.948;3.946;2023-09-19T11:26:41;6.95;;;1.48;;
31210;SDS011;17836;50.948;3.946;2023-09-19T11:29:30;3.42;;;0.77;;
31210;SDS011;17836;50.948;3.946;2023-09-19T11:31:59;2.90;;;1.17;;
31210;SDS011;17836;50.948;3.946;2023-09-19T11:39:39;2.65;;;1.02;;
31210;SDS011;17836;50.948;3.946;2023-09-19T11:44:52;4.85;;;0.80;;
31210;SDS011;17836;50.948;3.946;2023-09-19T11:47:21;2.78;;;0.85;;
31210;SDS011;17836;50.948;3.946;2023-09-19T11:49:47;6.22;;;0.90;;
31210;SDS011;17836;50.948;3.946;2023-09-19T11:52:16;3.30;;;1.00;;
31210;SDS011;17836;50.948;3.946;2023-09-19T11:54:47;2.53;;;0.90;;
31210;SDS011;17836;50.948;3.946;2023-09-19T11:57:20;3.33;;;0.70;;
31210;SDS011;17836;50.948;3.946;2023-09-19T11:59:45;3.55;;;0.90;;
31210;SDS011;17836;50.948;3.946;2023-09-19T12:02:17;2.08;;;0.80;;
31210;SDS011;17836;50.948;3.946;2023-09-19T12:04:46;2.97;;;0.73;;
31210;SDS011;17836;50.948;3.946;2023-09-19T12:07:15;3.22;;;1.08;;
31210;SDS011;17836;50.948;3.946;2023-09-19T12:09:44;7.15;;;1.25;;
31210;SDS011;17836;50.948;3.946;2023-09-19T12:12:19;3.05;;;0.88;;
31210;SDS011;17836;50.948;3.946;2023-09-19T12:14:48;3.08;;;0.95;;
31210;SDS011;17836;50.948;3.946;2023-09-19T12:17:13;4.13;;;0.90;;
31210;SDS011;17836;50.948;3.946;2023-09-19T12:19:39;7.53;;;1.77;;
31210;SDS011;17836;50.948;3.946;2023-09-19T12:22:04;2.70;;;1.27;;
31210;SDS011;17836;50.948;3.946;2023-09-19T12:24:29;5.00;;;1.43;;
31210;SDS011;17836;50.948;3.946;2023-09-19T12:26:59;3.28;;;1.00;;
31210;SDS011;17836;50.948;3.946;2023-09-19T12:29:27;5.13;;;0.80;;
31210;SDS011;17836;50.948;3.946;2023-09-19T12:34:22;2.17;;;0.90;;
31210;SDS011;17836;50.948;3.946;2023-09-19T12:37:11;4.07;;;1.00;;
31210;SDS011;17836;50.948;3.946;2023-09-19T12:39:38;3.80;;;1.35;;
31210;SDS011;17836;50.948;3.946;2023-09-19T12:42:03;5.82;;;1.10;;
31210;SDS011;17836;50.948;3.946;2023-09-19T12:44:31;3.97;;;1.00;;
31210;SDS011;17836;50.948;3.946;2023-09-19T12:47:00;2.10;;;0.80;;
31210;SDS011;17836;50.948;3.946;2023-09-19T12:49:26;5.28;;;1.30;;
31210;SDS011;17836;50.948;3.946;2023-09-19T12:51:54;3.55;;;0.90;;
31210;SDS011;17836;50.948;3.946;2023-09-19T12:54:20;2.05;;;0.88;;
31210;SDS011;17836;50.948;3.946;2023-09-19T12:56:47;3.45;;;1.08;;
31210;SDS011;17836;50.948;3.946;2023-09-19T12:59:14;7.32;;;1.50;;
31210;SDS011;17836;50.948;3.946;2023-09-19T13:01:40;2.28;;;0.80;;
31210;SDS011;17836;50.948;3.946;2023-09-19T13:06:46;3.38;;;0.60;;
31210;SDS011;17836;50.948;3.946;2023-09-19T13:09:13;4.68;;;0.80;;
31210;SDS011;17836;50.948;3.946;2023-09-19T13:11:40;4.50;;;1.27;;
31210;SDS011;17836;50.948;3.946;2023-09-19T13:22:00;4.40;;;1.33;;
31210;SDS011;17836;50.948;3.946;2023-09-19T13:24:26;3.97;;;1.23;;
31210;SDS011;17836;50.948;3.946;2023-09-19T13:26:52;2.20;;;0.85;;
31210;SDS011;17836;50.948;3.946;2023-09-19T13:29:18;5.78;;;1.10;;
31210;SDS011;17836;50.948;3.946;2023-09-19T13:31:47;2.80;;;0.95;;
31210;SDS011;17836;50.948;3.946;2023-09-19T13:34:12;2.83;;;0.70;;
31210;SDS011;17836;50.948;3.946;2023-09-19T13:36:40;5.85;;;0.98;;
31210;SDS011;17836;50.948;3.946;2023-09-19T13:39:07;4.47;;;1.08;;
31210;SDS011;17836;50.948;3.946;2023-09-19T13:41:34;5.03;;;0.90;;
31210;SDS011;17836;50.948;3.946;2023-09-19T13:44:01;5.00;;;1.50;;
31210;SDS011;17836;50.948;3.946;2023-09-19T13:46:27;3.75;;;0.90;;
31210;SDS011;17836;50.948;3.946;2023-09-19T13:48:52;14.77;;;2.22;;
31210;SDS011;17836;50.948;3.946;2023-09-19T13:51:20;4.43;;;0.93;;
31210;SDS011;17836;50.948;3.946;2023-09-19T13:53:46;4.13;;;1.20;;
31210;SDS011;17836;50.948;3.946;2023-09-19T13:56:12;4.63;;;1.40;;
31210;SDS011;17836;50.948;3.946;2023-09-19T13:58:38;4.55;;;1.13;;
31210;SDS011;17836;50.948;3.946;2023-09-19T14:01:03;2.70;;;1.07;;
31210;SDS011;17836;50.948;3.946;2023-09-19T14:03:29;4.53;;;1.07;;
31210;SDS011;17836;50.948;3.946;2023-09-19T14:05:54;3.87;;;1.00;;
31210;SDS011;17836;50.948;3.946;2023-09-19T14:08:22;5.18;;;1.17;;
31210;SDS011;17836;50.948;3.946;2023-09-19T14:10:48;3.83;;;1.25;;
31210;SDS011;17836;50.948;3.946;2023-09-19T14:13:13;4.57;;;1.37;;
31210;SDS011;17836;50.948;3.946;2023-09-19T14:15:40;6.05;;;1.35;;
31210;SDS011;17836;50.948;3.946;2023-09-19T14:18:05;2.27;;;1.07;;
31210;SDS011;17836;50.948;3.946;2023-09-19T14:20:30;3.33;;;1.20;;
31210;SDS011;17836;50.948;3.946;2023-09-19T14:22:56;4.25;;;0.90;;
31210;SDS011;17836;50.948;3.946;2023-09-19T14:25:23;3.25;;;1.60;;
31210;SDS011;17836;50.948;3.946;2023-09-19T14:27:52;6.30;;;1.38;;
31210;SDS011;17836;50.948;3.946;2023-09-19T14:30:17;6.25;;;1.85;;
31210;SDS011;17836;50.948;3.946;2023-09-19T14:32:42;3.87;;;1.30;;
31210;SDS011;17836;50.948;3.946;2023-09-19T14:35:07;2.90;;;1.20;;
31210;SDS011;17836;50.948;3.946;2023-09-19T14:37:34;9.75;;;1.70;;
31210;SDS011;17836;50.948;3.946;2023-09-19T14:39:59;5.20;;;1.10;;
31210;SDS011;17836;50.948;3.946;2023-09-19T14:42:25;3.88;;;0.90;;
31210;SDS011;17836;50.948;3.946;2023-09-19T14:44:50;5.33;;;1.33;;
31210;SDS011;17836;50.948;3.946;2023-09-19T14:47:16;4.40;;;1.10;;
31210;SDS011;17836;50.948;3.946;2023-09-19T14:49:42;6.55;;;1.50;;
31210;SDS011;17836;50.948;3.946;2023-09-19T14:52:07;5.07;;;1.37;;
31210;SDS011;17836;50.948;3.946;2023-09-19T14:54:32;6.32;;;1.17;;
31210;SDS011;17836;50.948;3.946;2023-09-19T14:57:01;5.10;;;1.33;;
31210;SDS011;17836;50.948;3.946;2023-09-19T14:59:35;4.07;;;1.67;;
31210;SDS011;17836;50.948;3.946;2023-09-19T15:02:03;4.00;;;1.40;;
31210;SDS011;17836;50.948;3.946;2023-09-19T15:04:29;5.55;;;1.33;;
31210;SDS011;17836;50.948;3.946;2023-09-19T15:06:54;5.15;;;1.30;;
31210;SDS011;17836;50.948;3.946;2023-09-19T15:09:20;4.15;;;1.40;;
31210;SDS011;17836;50.948;3.946;2023-09-19T15:11:48;3.75;;;1.63;;
31210;SDS011;17836;50.948;3.946;2023-09-19T15:14:13;7.23;;;2.13;;
31210;SDS011;17836;50.948;3.946;2023-09-19T15:16:39;5.13;;;1.67;;
31210;SDS011;17836;50.948;3.946;2023-09-19T15:19:05;2.47;;;1.05;;
31210;SDS011;17836;50.948;3.946;2023-09-19T15:21:32;7.82;;;1.83;;
31210;SDS011;17836;50.948;3.946;2023-09-19T15:23:57;4.10;;;1.50;;
31210;SDS011;17836;50.948;3.946;2023-09-19T15:26:22;4.77;;;1.63;;
31210;SDS011;17836;50.948;3.946;2023-09-19T15:28:50;4.30;;;1.45;;
31210;SDS011;17836;50.948;3.946;2023-09-19T15:31:21;4.93;;;1.50;;
31210;SDS011;17836;50.948;3.946;2023-09-19T15:33:47;6.38;;;1.77;;
31210;SDS011;17836;50.948;3.946;2023-09-19T15:36:13;4.13;;;1.40;;
31210;SDS011;17836;50.948;3.946;2023-09-19T15:41:23;4.47;;;1.67;;
31210;SDS011;17836;50.948;3.946;2023-09-19T15:43:49;4.55;;;1.40;;
31210;SDS011;17836;50.948;3.946;2023-09-19T15:46:14;3.67;;;1.40;;
31210;SDS011;17836;50.948;3.946;2023-09-19T15:48:40;4.40;;;1.52;;
31210;SDS011;17836;50.948;3.946;2023-09-19T15:51:08;3.50;;;1.40;;
31210;SDS011;17836;50.948;3.946;2023-09-19T15:56:05;7.87;;;1.43;;
31210;SDS011;17836;50.948;3.946;2023-09-19T15:58:31;5.10;;;1.63;;
31210;SDS011;17836;50.948;3.946;2023-09-19T16:00:56;3.63;;;1.40;;
31210;SDS011;17836;50.948;3.946;2023-09-19T16:03:21;5.63;;;1.43;;